createdAt,value
2022-12-01T00:02:55.726Z,100923.31
2022-12-01T00:06:15.778Z,100928.09
2022-12-01T00:09:36.342Z,100927.28
2022-12-01T00:12:43.474Z,100929.34
2022-12-01T00:15:45.782Z,100932.25
2022-12-01T00:18:53.057Z,100939.13
2022-12-01T00:21:55.198Z,100935.09
2022-12-01T00:24:57.521Z,100943.62
2022-12-01T00:27:59.675Z,100937.16
2022-12-01T00:31:08.334Z,100937.66
2022-12-01T00:34:25.436Z,100938.44
2022-12-01T00:37:29.755Z,100941.56
2022-12-01T00:40:31.931Z,100936.16
2022-12-01T00:43:34.580Z,100945.47
2022-12-01T00:46:36.707Z,100946.47
2022-12-01T00:49:39.239Z,100952.66
2022-12-01T00:52:41.386Z,100950.16
2022-12-01T00:55:43.749Z,100948.84
2022-12-01T00:58:45.871Z,100953.84
2022-12-01T01:01:49.580Z,100958.78
2022-12-01T01:04:53.099Z,100958.00
2022-12-01T01:07:55.539Z,100946.72
2022-12-01T01:11:00.534Z,100944.53
2022-12-01T01:14:03.314Z,100946.16
2022-12-01T01:17:05.657Z,100944.19
2022-12-01T01:20:08.917Z,100945.06
2022-12-01T01:23:11.018Z,100941.84
2022-12-01T01:26:17.127Z,100942.06
2022-12-01T01:29:19.644Z,100938.84
2022-12-01T01:32:22.032Z,100941.50
2022-12-01T01:35:24.185Z,100941.00
2022-12-01T01:38:27.790Z,100946.69
2022-12-01T01:41:30.226Z,100938.41
2022-12-01T01:45:12.288Z,100939.91
2022-12-01T01:48:15.347Z,100936.66
2022-12-01T01:51:22.437Z,100938.75
2022-12-01T01:54:29.289Z,100934.06
2022-12-01T01:57:33.985Z,100936.81
2022-12-01T02:00:37.865Z,100932.72
2022-12-01T02:03:42.197Z,100937.44
2022-12-01T02:06:44.328Z,100930.53
2022-12-01T02:09:47.015Z,100935.41
2022-12-01T02:13:16.293Z,100928.94
2022-12-01T02:16:27.803Z,100928.53
2022-12-01T02:19:56.018Z,100931.22
2022-12-01T02:23:31.256Z,100935.34
2022-12-01T02:26:49.154Z,100933.25
2022-12-01T02:30:03.632Z,100930.28
2022-12-01T02:33:23.681Z,100929.00
2022-12-01T02:36:43.371Z,100931.06
2022-12-01T02:39:58.022Z,100930.44
2022-12-01T02:43:07.773Z,100923.56
2022-12-01T02:46:20.659Z,100918.91
2022-12-01T02:49:28.301Z,100917.38
2022-12-01T02:52:30.938Z,100917.81
2022-12-01T02:55:33.266Z,100915.22
2022-12-01T02:58:35.502Z,100915.63
2022-12-01T03:01:56.619Z,100913.12
2022-12-01T03:05:32.208Z,100914.41
2022-12-01T03:08:39.257Z,100922.66
2022-12-01T03:12:03.280Z,100924.78
2022-12-01T03:15:13.727Z,100925.66
2022-12-01T03:18:30.779Z,100918.69
2022-12-01T03:21:41.437Z,100927.81
2022-12-01T03:24:48.084Z,100921.44
2022-12-01T03:28:20.318Z,100914.31
2022-12-01T03:31:24.393Z,100920.12
2022-12-01T03:34:41.911Z,100918.59
2022-12-01T03:37:56.964Z,100916.09
2022-12-01T03:41:06.047Z,100904.03
2022-12-01T03:44:14.011Z,100905.00
2022-12-01T03:47:20.776Z,100904.38
2022-12-01T03:50:29.172Z,100903.41
2022-12-01T03:53:47.066Z,100899.84
2022-12-01T03:56:56.712Z,100897.56
2022-12-01T03:59:59.636Z,100904.91
2022-12-01T04:03:05.941Z,100906.03
2022-12-01T04:06:08.550Z,100910.34
2022-12-01T04:09:10.651Z,100906.03
2022-12-01T04:12:29.467Z,100901.09
2022-12-01T04:15:31.681Z,100893.19
2022-12-01T04:18:34.023Z,100881.72
2022-12-01T04:21:36.188Z,100874.34
2022-12-01T04:24:39.017Z,100873.28
2022-12-01T04:27:41.178Z,100883.25
2022-12-01T04:30:43.520Z,100890.69
2022-12-01T04:33:45.674Z,100891.91
2022-12-01T04:36:48.108Z,100900.84
2022-12-01T04:39:50.327Z,100900.38
2022-12-01T04:42:52.830Z,100909.28
2022-12-01T04:45:54.885Z,100915.13
2022-12-01T04:48:57.243Z,100922.34
2022-12-01T04:51:59.375Z,100923.06
2022-12-01T04:55:01.939Z,100916.03
2022-12-01T04:58:04.953Z,100921.44
2022-12-01T05:01:12.242Z,100922.25
2022-12-01T05:04:15.396Z,100923.78
2022-12-01T05:07:18.293Z,100928.31
2022-12-01T05:10:20.699Z,100922.72
2022-12-01T05:13:23.682Z,100917.31
2022-12-01T05:16:34.307Z,100916.75
2022-12-01T05:19:55.520Z,100915.28
2022-12-01T05:23:05.824Z,100921.34
2022-12-01T05:26:09.053Z,100921.03
2022-12-01T05:29:12.462Z,100921.59
2022-12-01T05:32:14.838Z,100912.44
2022-12-01T05:35:17.045Z,100915.00
2022-12-01T05:38:20.015Z,100910.97
2022-12-01T05:41:22.301Z,100915.97
2022-12-01T05:44:24.729Z,100918.56
2022-12-01T05:47:26.898Z,100923.22
2022-12-01T05:50:30.301Z,100917.81
2022-12-01T05:53:32.506Z,100918.84
2022-12-01T05:56:35.102Z,100918.75
2022-12-01T05:59:37.258Z,100926.25
2022-12-01T06:02:42.376Z,100929.72
2022-12-01T06:05:44.731Z,100927.69
2022-12-01T06:08:47.001Z,100928.66
2022-12-01T06:11:52.489Z,100937.69
2022-12-01T06:14:54.853Z,100944.66
2022-12-01T06:18:00.404Z,100945.03
2022-12-01T06:21:03.350Z,100946.41
2022-12-01T06:24:06.109Z,100950.81
2022-12-01T06:27:08.254Z,100950.62
2022-12-01T06:30:11.184Z,100949.16
2022-12-01T06:33:13.367Z,100956.31
2022-12-01T06:36:16.019Z,100948.53
2022-12-01T06:39:18.200Z,100943.91
2022-12-01T06:42:20.640Z,100947.28
2022-12-01T06:45:22.705Z,100957.47
2022-12-01T06:48:25.088Z,100944.84
2022-12-01T06:51:27.397Z,100949.72
2022-12-01T06:54:30.409Z,100936.84
2022-12-01T06:57:33.229Z,100947.41
2022-12-01T07:00:35.937Z,100950.53
2022-12-01T07:03:39.078Z,100947.53
2022-12-01T07:06:41.503Z,100949.97
2022-12-01T07:09:43.894Z,100954.25
2022-12-01T07:12:46.388Z,100948.78
2022-12-01T07:15:51.388Z,100952.75
2022-12-01T07:18:53.939Z,100955.53
2022-12-01T07:21:56.250Z,100955.97
2022-12-01T07:24:58.837Z,100959.81
2022-12-01T07:28:01.409Z,100967.56
2022-12-01T07:31:05.997Z,100953.44
2022-12-01T07:34:12.911Z,100956.53
2022-12-01T07:37:17.375Z,100960.34
2022-12-01T07:40:19.928Z,100960.34
2022-12-01T07:43:22.501Z,100970.41
2022-12-01T07:46:26.503Z,100958.25
2022-12-01T07:49:29.131Z,100957.44
2022-12-01T07:52:31.322Z,100956.75
2022-12-01T07:55:33.822Z,100956.63
2022-12-01T07:58:36.168Z,100957.19
2022-12-01T08:01:44.083Z,100962.87
2022-12-01T08:04:47.189Z,100961.03
2022-12-01T08:07:49.466Z,100971.63
2022-12-01T08:10:52.954Z,100961.97
2022-12-01T08:13:55.141Z,100967.44
2022-12-01T08:16:57.491Z,100966.72
2022-12-01T08:19:59.700Z,100966.09
2022-12-01T08:23:02.767Z,100958.84
2022-12-01T08:26:08.569Z,100958.94
2022-12-01T08:29:13.608Z,100959.50
2022-12-01T08:32:19.211Z,100956.44
2022-12-01T08:35:21.973Z,100957.34
2022-12-01T08:38:24.132Z,100963.19
2022-12-01T08:41:26.724Z,100960.75
2022-12-01T08:44:28.904Z,100962.47
2022-12-01T08:47:31.294Z,100978.41
2022-12-01T08:50:33.445Z,100967.59
2022-12-01T08:53:45.169Z,100973.09
2022-12-01T08:56:47.831Z,100962.87
2022-12-01T08:59:50.608Z,100970.22
2022-12-01T09:02:53.159Z,100973.00
2022-12-01T09:06:01.730Z,100971.12
2022-12-01T09:09:03.964Z,100965.41
2022-12-01T09:12:07.466Z,100969.37
2022-12-01T09:15:10.031Z,100963.53
2022-12-01T09:18:12.429Z,100965.81
2022-12-01T09:21:20.635Z,100965.66
2022-12-01T09:24:23.841Z,100963.22
2022-12-01T09:27:26.058Z,100955.56
2022-12-01T09:30:28.944Z,100966.94
2022-12-01T09:33:31.487Z,100953.66
2022-12-01T09:36:35.677Z,100947.88
2022-12-01T09:39:38.194Z,100949.28
2022-12-01T09:42:41.217Z,100945.59
2022-12-01T09:45:48.496Z,100947.56
2022-12-01T09:48:54.049Z,100944.66
2022-12-01T09:51:56.217Z,100940.16
2022-12-01T09:55:00.321Z,100941.28
2022-12-01T09:58:04.229Z,100939.94
2022-12-01T10:01:15.694Z,100931.41
2022-12-01T10:04:36.087Z,100930.62
2022-12-01T10:07:47.706Z,100918.50
2022-12-01T10:10:54.929Z,100922.78
2022-12-01T10:13:58.701Z,100923.06
2022-12-01T10:17:16.947Z,100920.97
2022-12-01T10:20:44.619Z,100918.56
2022-12-01T10:24:15.201Z,100922.34
2022-12-01T10:27:49.505Z,100914.84
2022-12-01T10:30:53.108Z,100913.47
2022-12-01T10:34:06.262Z,100905.97
2022-12-01T10:37:18.678Z,100903.34
2022-12-01T10:40:21.126Z,100897.19
2022-12-01T10:43:41.009Z,100901.47
2022-12-01T10:46:54.611Z,100896.62
2022-12-01T10:49:57.402Z,100891.50
2022-12-01T10:52:59.864Z,100890.44
2022-12-01T10:56:10.422Z,100891.50
2022-12-01T10:59:26.070Z,100887.22
2022-12-01T11:02:30.929Z,100899.00
2022-12-01T11:05:39.192Z,100886.38
2022-12-01T11:08:46.900Z,100892.03
2022-12-01T11:11:56.795Z,100885.09
2022-12-01T11:14:59.729Z,100877.28
2022-12-01T11:18:05.750Z,100874.31
2022-12-01T11:21:26.507Z,100870.53
2022-12-01T11:24:43.906Z,100866.75
2022-12-01T11:28:01.436Z,100865.72
2022-12-01T11:31:08.772Z,100862.22
2022-12-01T11:34:38.402Z,100860.31
2022-12-01T11:41:30.463Z,100857.53
2022-12-01T11:44:51.075Z,100848.34
2022-12-01T11:48:12.541Z,100856.91
2022-12-01T11:51:17.792Z,100856.03
2022-12-01T11:54:25.104Z,100857.63
2022-12-01T11:57:34.864Z,100855.00
2022-12-01T12:00:56.208Z,100853.22
2022-12-01T12:04:16.036Z,100850.56
2022-12-01T12:07:26.615Z,100845.97
2022-12-01T12:10:32.036Z,100840.37
2022-12-01T12:13:55.996Z,100842.25
2022-12-01T12:17:29.567Z,100848.41
2022-12-01T12:20:45.546Z,100844.34
2022-12-01T12:24:17.017Z,100837.31
2022-12-01T12:27:19.269Z,100841.38
2022-12-01T12:30:29.822Z,100837.25
2022-12-01T12:33:58.862Z,100831.25
2022-12-01T12:37:04.391Z,100837.44
2022-12-01T12:40:17.782Z,100840.56
2022-12-01T12:43:25.409Z,100851.91
2022-12-01T12:46:40.206Z,100846.03
2022-12-01T12:50:19.972Z,100837.94
2022-12-01T12:53:27.774Z,100838.44
2022-12-01T12:56:34.076Z,100834.41
2022-12-01T12:59:48.701Z,100835.75
2022-12-01T13:03:02.126Z,100833.84
2022-12-01T13:06:12.813Z,100840.06
2022-12-01T13:09:27.075Z,100828.25
2022-12-01T13:12:33.453Z,100829.56
2022-12-01T13:15:37.923Z,100828.47
2022-12-01T13:18:49.178Z,100823.91
2022-12-01T13:21:53.019Z,100830.37
2022-12-01T13:24:55.281Z,100833.84
2022-12-01T13:28:00.568Z,100827.72
2022-12-01T13:31:06.330Z,100829.59
2022-12-01T13:34:20.829Z,100828.22
2022-12-01T13:37:33.138Z,100829.56
2022-12-01T13:40:35.895Z,100833.91
2022-12-01T13:43:52.074Z,100834.72
2022-12-01T13:47:23.567Z,100834.78
2022-12-01T13:50:42.984Z,100832.88
2022-12-01T13:54:25.581Z,100836.09
2022-12-01T13:57:30.128Z,100827.78
2022-12-01T14:00:34.833Z,100830.50
2022-12-01T14:03:40.117Z,100832.91
2022-12-01T14:06:50.603Z,100831.31
2022-12-01T14:09:57.353Z,100834.88
2022-12-01T14:13:04.227Z,100829.50
2022-12-01T14:16:08.406Z,100823.84
2022-12-01T14:19:36.893Z,100820.94
2022-12-01T14:22:43.951Z,100823.41
2022-12-01T14:26:12.559Z,100823.16
2022-12-01T14:29:38.729Z,100820.47
2022-12-01T14:32:40.824Z,100815.94
2022-12-01T14:35:43.339Z,100815.16
2022-12-01T14:38:47.541Z,100824.88
2022-12-01T14:41:56.597Z,100826.47
2022-12-01T14:44:58.925Z,100816.81
2022-12-01T14:48:04.254Z,100816.81
2022-12-01T14:51:32.971Z,100818.19
2022-12-01T14:54:49.434Z,100827.34
2022-12-01T14:58:00.095Z,100826.25
2022-12-01T15:01:12.746Z,100828.12
2022-12-01T15:04:15.475Z,100825.44
2022-12-01T15:07:22.912Z,100829.50
2022-12-01T15:10:35.061Z,100829.50
2022-12-01T15:13:52.908Z,100830.81
2022-12-01T15:16:55.448Z,100834.31
2022-12-01T15:19:58.875Z,100830.03
2022-12-01T15:23:02.679Z,100825.97
2022-12-01T15:26:05.342Z,100831.09
2022-12-01T15:29:46.878Z,100822.50
2022-12-01T15:32:50.057Z,100828.94
2022-12-01T15:35:53.228Z,100829.19
2022-12-01T15:38:56.115Z,100830.25
2022-12-01T15:41:58.787Z,100830.25
2022-12-01T15:45:17.637Z,100824.63
2022-12-01T15:48:28.994Z,100822.69
2022-12-01T15:51:32.064Z,100831.81
2022-12-01T15:54:34.729Z,100826.97
2022-12-01T15:57:38.477Z,100833.91
2022-12-01T16:00:40.737Z,100831.75
2022-12-01T16:03:50.806Z,100836.31
2022-12-01T16:07:06.999Z,100839.00
2022-12-01T16:10:32.477Z,100832.56
2022-12-01T16:13:48.111Z,100837.66
2022-12-01T16:16:51.473Z,100832.81
2022-12-01T16:20:15.874Z,100835.47
2022-12-01T16:23:25.367Z,100836.53
2022-12-01T16:26:28.539Z,100835.50
2022-12-01T16:29:43.933Z,100830.09
2022-12-01T16:32:49.291Z,100833.84
2022-12-01T16:35:52.994Z,100838.66
2022-12-01T16:38:55.176Z,100831.97
2022-12-01T16:42:00.271Z,100827.66
2022-12-01T16:45:04.847Z,100837.31
2022-12-01T16:48:09.554Z,100840.75
2022-12-01T16:51:14.598Z,100837.03
2022-12-01T16:54:17.181Z,100829.00
2022-12-01T16:57:19.439Z,100832.72
2022-12-01T17:00:23.147Z,100835.12
2022-12-01T17:03:27.999Z,100836.75
2022-12-01T17:06:32.178Z,100841.28
2022-12-01T17:09:34.327Z,100840.50
2022-12-01T17:12:36.927Z,100846.97
2022-12-01T17:15:44.294Z,100853.91
2022-12-01T17:18:46.783Z,100849.56
2022-12-01T17:21:48.938Z,100847.69
2022-12-01T17:24:51.604Z,100843.16
2022-12-01T17:27:54.118Z,100848.19
2022-12-01T17:31:00.480Z,100848.44
2022-12-01T17:34:02.717Z,100856.22
2022-12-01T17:37:05.415Z,100848.69
2022-12-01T17:40:11.188Z,100860.44
2022-12-01T17:43:13.647Z,100855.56
2022-12-01T17:46:16.450Z,100852.31
2022-12-01T17:49:19.242Z,100865.06
2022-12-01T17:52:24.195Z,100855.69
2022-12-01T17:55:30.497Z,100860.78
2022-12-01T17:58:33.678Z,100853.19
2022-12-01T18:01:36.465Z,100854.66
2022-12-01T18:04:39.351Z,100862.69
2022-12-01T18:07:41.821Z,100863.78
2022-12-01T18:10:44.358Z,100865.00
2022-12-01T18:13:49.487Z,100863.53
2022-12-01T18:16:52.854Z,100861.94
2022-12-01T18:19:56.217Z,100861.94
2022-12-01T18:22:58.857Z,100866.41
2022-12-01T18:26:08.664Z,100863.66
2022-12-01T18:29:18.500Z,100856.19
2022-12-01T18:32:21.049Z,100862.88
2022-12-01T18:35:30.329Z,100867.63
2022-12-01T18:38:34.245Z,100872.75
2022-12-01T18:41:37.117Z,100867.28
2022-12-01T18:44:39.360Z,100869.91
2022-12-01T18:47:44.695Z,100865.81
2022-12-01T18:50:49.396Z,100872.50
2022-12-01T18:53:57.889Z,100872.22
2022-12-01T18:57:00.246Z,100874.56
2022-12-01T19:00:06.176Z,100869.69
2022-12-01T19:03:08.332Z,100871.75
2022-12-01T19:06:12.553Z,100864.84
2022-12-01T19:09:16.151Z,100871.47
2022-12-01T19:12:18.957Z,100869.53
2022-12-01T19:15:21.379Z,100868.50
2022-12-01T19:18:25.910Z,100877.28
2022-12-01T19:21:28.233Z,100875.59
2022-12-01T19:24:31.678Z,100875.03
2022-12-01T19:27:34.720Z,100881.37
2022-12-01T19:30:41.003Z,100878.88
2022-12-01T19:33:46.573Z,100880.50
2022-12-01T19:36:52.178Z,100881.78
2022-12-01T19:39:56.753Z,100876.44
2022-12-01T19:42:59.457Z,100870.28
2022-12-01T19:46:10.016Z,100878.91
2022-12-01T19:49:13.252Z,100874.88
2022-12-01T19:52:16.919Z,100884.53
2022-12-01T19:55:20.745Z,100880.41
2022-12-01T19:58:24.881Z,100888.88
2022-12-01T20:01:27.861Z,100887.78
2022-12-01T20:04:30.948Z,100885.59
2022-12-01T20:07:33.113Z,100890.94
2022-12-01T20:10:35.737Z,100883.97
2022-12-01T20:13:40.284Z,100885.13
2022-12-01T20:16:43.794Z,100891.59
2022-12-01T20:19:46.372Z,100886.72
2022-12-01T20:22:48.868Z,100890.44
2022-12-01T20:25:52.312Z,100890.06
2022-12-01T20:28:59.025Z,100885.09
2022-12-01T20:32:03.033Z,100888.28
2022-12-01T20:35:08.946Z,100888.09
2022-12-01T20:38:11.181Z,100890.78
2022-12-01T20:41:14.614Z,100885.28
2022-12-01T20:44:17.919Z,100895.31
2022-12-01T20:47:21.170Z,100893.19
2022-12-01T20:50:23.801Z,100902.09
2022-12-01T20:53:26.229Z,100898.53
2022-12-01T20:56:28.568Z,100907.19
2022-12-01T20:59:31.092Z,100905.81
2022-12-01T21:02:33.259Z,100909.91
2022-12-01T21:05:39.098Z,100913.38
2022-12-01T21:08:44.061Z,100912.03
2022-12-01T21:12:08.684Z,100916.22
2022-12-01T21:15:28.007Z,100916.34
2022-12-01T21:18:55.761Z,100919.50
2022-12-01T21:21:58.745Z,100920.47
2022-12-01T21:25:15.700Z,100923.06
2022-12-01T21:28:24.789Z,100924.22
2022-12-01T21:31:27.487Z,100923.31
2022-12-01T21:34:29.881Z,100922.88
2022-12-01T21:37:32.409Z,100929.94
2022-12-01T21:40:34.522Z,100921.84
2022-12-01T21:43:38.588Z,100924.66
2022-12-01T21:46:42.379Z,100935.63
2022-12-01T21:49:45.859Z,100920.12
2022-12-01T21:52:48.553Z,100922.69
2022-12-01T21:55:50.981Z,100922.13
2022-12-01T21:58:55.298Z,100924.31
2022-12-01T22:01:57.869Z,100930.12
2022-12-01T22:05:00.419Z,100932.22
2022-12-01T22:08:22.774Z,100925.63
2022-12-01T22:11:28.980Z,100926.78
2022-12-01T22:14:36.062Z,100932.44
2022-12-01T22:17:40.970Z,100927.12
2022-12-01T22:20:43.549Z,100928.06
2022-12-01T22:23:48.805Z,100930.62
2022-12-01T22:26:58.951Z,100924.56
2022-12-01T22:30:10.438Z,100916.94
2022-12-01T22:33:23.378Z,100921.78
2022-12-01T22:36:32.866Z,100910.09
2022-12-01T22:39:35.363Z,100916.47
2022-12-01T22:42:37.921Z,100906.66
2022-12-01T22:45:42.293Z,100910.44
2022-12-01T22:48:53.220Z,100909.84
2022-12-01T22:52:18.846Z,100906.69
2022-12-01T22:55:21.441Z,100905.88
2022-12-01T22:58:40.764Z,100905.09
2022-12-01T23:01:57.653Z,100904.59
2022-12-01T23:05:14.276Z,100897.53
2022-12-01T23:08:22.458Z,100900.91
2022-12-01T23:11:25.614Z,100909.22
2022-12-01T23:14:28.811Z,100904.94
2022-12-01T23:17:34.317Z,100908.44
2022-12-01T23:20:38.217Z,100910.78
2022-12-01T23:23:40.362Z,100905.66
2022-12-01T23:26:46.174Z,100909.34
2022-12-01T23:29:48.630Z,100908.66
2022-12-01T23:32:59.580Z,100914.81
2022-12-01T23:36:22.597Z,100902.19
2022-12-01T23:39:32.609Z,100914.56
2022-12-01T23:42:34.755Z,100917.91
2022-12-01T23:45:37.712Z,100915.47
2022-12-01T23:48:46.206Z,100921.47
2022-12-01T23:51:59.228Z,100914.66
2022-12-01T23:55:02.499Z,100916.81
2022-12-01T23:58:05.301Z,100915.88
